Home

Weather

KSLC Current Conditions

KSLC 171254Z 17005KT 10SM FEW075 BKN110 01/M04 A3007 RMK AO2 SLP184 T00061039

KSLC Aviation Forecast

TAF KSLC 171130Z 1712/1818 15006KT P6SM SCT040 BKN090 FM171500 31006KT P6SM VCSH SCT020 BKN040 FM180000 33006KT P6SM SCT060 BKN080 FM180300 30005KT P6SM SCT080 SCT100


31° F
Overcast
Overcast

Chance of Rain
Saturday
Chance of Rain
High 42°/Low 25°
50%
Clear
Sunday
Clear
High 44°/Low 23°
0%
Clear
Monday
Clear
High 47°/Low 24°
0%
Clear
Tuesday
Clear
High 49°/Low 27°
0%
Clear
Wednesday
Clear
High 55°/Low 36°
0%
Chance of Rain
Thursday
Chance of Rain
High 43°/Low 32°
50%